| time (UTC) | temp F | wind direction | speed knots | gust knots | rain 1hr in | rain 24hr in | rain mn in | humidity % | barometer mb |
| 20260504213021 | 75 | 15 | 0.9 | 4.3 | 0.00 | 0.00 | 0.00 | 45 | 1012.6 |
| 20260504211525 | 75 | 164 | 0.0 | 3.5 | 0.00 | 0.00 | 0.00 | 43 | 1012.8 |
| 20260504210007 | 76 | 262 | 0.0 | 2.6 | 0.00 | 0.00 | 0.00 | 43 | 1012.9 |
| 20260504204504 | 76 | 245 | 0.0 | 3.5 | 0.00 | 0.00 | 0.00 | 44 | 1013.2 |
| 20260504203057 | 75 | 240 | 0.0 | 5.2 | 0.00 | 0.00 | 0.00 | 45 | 1013.2 |
| 20260504201546 | 75 | 352 | 0.0 | 3.5 | 0.00 | 0.00 | 0.00 | 50 | 1013.3 |
| 20260504200044 | 75 | 321 | 0.9 | 2.6 | 0.00 | 0.00 | 0.00 | 52 | 1013.6 |
| 20260504194548 | 75 | 257 | 0.0 | 3.5 | 0.00 | 0.00 | 0.00 | 51 | 1014.0 |
| 20260504193038 | 75 | 252 | 0.0 | 6.1 | 0.00 | 0.00 | 0.00 | 53 | 1014.3 |
| 20260504191536 | 74 | 221 | 0.9 | 6.1 | 0.00 | 0.00 | 0.00 | 50 | 1014.8 |
| 20260504190033 | 73 | 146 | 0.0 | 4.3 | 0.00 | 0.00 | 0.00 | 52 | 1014.9 |
| 20260504184543 | 73 | 281 | 0.0 | 3.5 | 0.00 | 0.00 | 0.00 | 52 | 1015.0 |
| 20260504183029 | 73 | 309 | 0.9 | 3.5 | 0.00 | 0.00 | 0.00 | 52 | 1015.2 |
| 20260504181526 | 72 | 280 | 0.0 | 1.7 | 0.00 | 0.00 | 0.00 | 49 | 1015.3 |
| 20260504180025 | 71 | 146 | 0.9 | 4.3 | 0.00 | 0.00 | 0.00 | 49 | 1015.6 |
| 20260504174521 | 71 | 264 | 1.7 | 3.5 | 0.00 | 0.00 | 0.00 | 51 | 1015.8 |
| 20260504173017 | 70 | 139 | 0.0 | 3.5 | 0.00 | 0.00 | 0.00 | 52 | 1015.9 |
| 20260504171515 | 69 | 137 | 0.0 | 4.3 | 0.00 | 0.00 | 0.00 | 51 | 1016.2 |
| 20260504081531 | 41 | 207 | 0.0 | 0.0 | 0.00 | 0.00 | 0.00 | 84 | 1017.7 |
| 20260504050006 | 45 | 207 | 0.0 | 0.0 | 0.00 | 0.00 | 0.00 | 79 | 1018.0 |
| 20260504044509 | 45 | 207 | 0.0 | 0.0 | 0.00 | 0.00 | 0.00 | 76 | 1017.8 |
| 20260504043101 | 45 | 207 | 0.0 | 0.0 | 0.00 | 0.00 | 0.00 | 77 | 1017.9 |
| 20260504041529 | 46 | 207 | 0.0 | 0.0 | 0.00 | 0.00 | 0.00 | 76 | 1017.8 |
| 20260504040011 | 47 | 207 | 0.0 | 0.0 | 0.00 | 0.00 | 0.00 | 72 | 1017.7 |
| 20260504034516 | 49 | 207 | 0.0 | 0.0 | 0.00 | 0.00 | 0.00 | 69 | 1018.0 |
| 20260504033014 | 48 | 207 | 0.0 | 1.7 | 0.00 | 0.00 | 0.00 | 66 | 1017.8 |
| 20260504031510 | 48 | 212 | 0.0 | 0.0 | 0.00 | 0.00 | 0.00 | 71 | 1017.8 |
| 20260504030009 | 47 | 212 | 0.0 | 0.0 | 0.00 | 0.00 | 0.00 | 69 | 1017.5 |
| 20260504024510 | 48 | 212 | 0.0 | 0.0 | 0.00 | 0.00 | 0.00 | 67 | 1017.6 |
| 20260504023009 | 49 | 212 | 0.0 | 0.0 | 0.00 | 0.00 | 0.00 | 68 | 1017.5 |
| 20260504021508 | 50 | 212 | 0.0 | 0.0 | 0.00 | 0.00 | 0.00 | 63 | 1017.3 |
| 20260504020010 | 51 | 212 | 0.0 | 0.9 | 0.00 | 0.00 | 0.00 | 64 | 1017.4 |
| 20260504014511 | 51 | 137 | 0.0 | 1.7 | 0.00 | 0.00 | 0.00 | 61 | 1017.3 |
| 20260504013006 | 51 | 255 | 0.0 | 0.9 | 0.00 | 0.00 | 0.00 | 62 | 1017.4 |
| 20260504011505 | 51 | 255 | 0.0 | 0.0 | 0.00 | 0.00 | 0.00 | 61 | 1017.6 |
| 20260504010004 | 52 | 254 | 0.0 | 0.0 | 0.00 | 0.00 | 0.00 | 59 | 1017.4 |
| 20260504004513 | 53 | 255 | 0.0 | 0.0 | 0.00 | 0.00 | 0.00 | 57 | 1017.0 |
| 20260504003054 | 54 | 255 | 0.0 | 0.0 | 0.00 | 0.00 | 0.00 | 55 | 1016.9 |
| 20260504001516 | 56 | 254 | 0.0 | 0.0 | 0.00 | 0.00 | 0.00 | 52 | 1016.8 |
| 20260504000014 | 57 | 255 | 0.0 | 0.0 | 0.00 | 0.00 | 0.00 | 50 | 1016.9 |
| 20260503234514 | 58 | 254 | 0.0 | 0.0 | 0.00 | 0.00 | 0.00 | 47 | 1017.1 |
| 20260503233018 | 59 | 254 | 0.0 | 0.0 | 0.00 | 0.00 | 0.00 | 48 | 1017.0 |
| 20260503231511 | 60 | 262 | 0.0 | 1.7 | 0.00 | 0.00 | 0.00 | 45 | 1017.2 |
| 20260503230015 | 60 | 262 | 0.0 | 1.7 | 0.00 | 0.00 | 0.00 | 46 | 1017.1 |
| 20260503224510 | 61 | 274 | 0.0 | 1.7 | 0.00 | 0.00 | 0.00 | 45 | 1017.1 |
| 20260503223010 | 61 | 266 | 0.0 | 1.7 | 0.00 | 0.00 | 0.00 | 42 | 1017.3 |
| 20260503221508 | 61 | 220 | 0.9 | 3.5 | 0.00 | 0.00 | 0.00 | 41 | 1017.4 |
| 20260503220007 | 61 | 268 | 0.0 | 1.7 | 0.00 | 0.00 | 0.00 | 45 | 1017.4 |
| 20260503214508 | 61 | 259 | 0.0 | 3.5 | 0.00 | 0.00 | 0.00 | 41 | 1017.6 |